Time;durP1;ratioP1;P1;durP2;ratioP2;P2;SDS_P1;SDS_P2;PMS_P1;PMS_P2;Temp;Humidity;BMP_temperature;BMP_pressure;BME280_temperature;BME280_humidity;BME280_pressure;Samples;Min_cycle;Max_cycle;Signal;HPM_P1;HPM_P2
2021/01/28 00:02:26;;;;;;;52.93;21.67;;;;;;;-0.20;65.33;98448.17;2209965;81;21261;-77
2021/01/28 00:05:29;;;;;;;48.20;21.03;;;;;;;-0.20;65.34;98449.06;2210364;81;21174;-78
2021/01/28 00:08:30;;;;;;;55.47;23.47;;;;;;;-0.20;64.97;98454.19;2209906;81;21240;-78
2021/01/28 00:11:32;;;;;;;45.63;19.13;;;;;;;-0.20;65.24;98455.47;2209755;81;21468;-77
2021/01/28 00:14:33;;;;;;;51.67;20.87;;;;;;;-0.20;65.28;98449.46;2209465;81;21481;-78
2021/01/28 00:17:34;;;;;;;39.53;16.97;;;;;;;-0.22;65.68;98451.08;2208838;81;21248;-76
2021/01/28 00:20:35;;;;;;;43.73;17.17;;;;;;;-0.20;65.22;98445.21;2209486;81;21157;-78
2021/01/28 00:23:36;;;;;;;45.10;18.47;;;;;;;-0.20;65.44;98440.08;2209487;81;21518;-78
2021/01/28 00:26:37;;;;;;;40.97;16.57;;;;;;;-0.12;65.65;98445.57;2209281;81;21566;-78
2021/01/28 00:29:38;;;;;;;37.80;16.87;;;;;;;-0.04;65.69;98438.70;2209569;81;21126;-78
2021/01/28 00:32:39;;;;;;;43.50;13.70;;;;;;;0.05;65.55;98445.11;2210092;81;21261;-78
2021/01/28 00:35:40;;;;;;;29.87;14.87;;;;;;;0.12;65.28;98439.05;2209883;81;21134;-78
2021/01/28 00:38:41;;;;;;;33.90;13.97;;;;;;;0.12;65.14;98439.45;2209835;81;21388;-78
2021/01/28 00:41:42;;;;;;;26.13;12.33;;;;;;;0.09;65.06;98436.73;2209349;81;21261;-77
2021/01/28 00:44:43;;;;;;;28.20;13.47;;;;;;;0.07;65.16;98428.97;2209817;81;21276;-78
2021/01/28 00:47:44;;;;;;;31.87;14.20;;;;;;;0.09;64.99;98426.47;2209893;81;21452;-78
2021/01/28 00:50:46;;;;;;;42.33;14.23;;;;;;;0.05;64.84;98427.14;2209638;81;21561;-76
2021/01/28 00:53:47;;;;;;;29.20;13.40;;;;;;;0.06;64.94;98415.66;2209156;81;21259;-78
2021/01/28 00:56:48;;;;;;;27.93;12.57;;;;;;;0.07;64.39;98413.58;2209422;81;21516;-77
2021/01/28 00:59:49;;;;;;;36.27;14.27;;;;;;;0.00;64.49;98412.82;2210093;81;21161;-78
2021/01/28 01:02:50;;;;;;;27.50;12.80;;;;;;;-0.05;64.86;98416.83;2209406;81;21319;-77
2021/01/28 01:05:51;;;;;;;32.03;13.70;;;;;;;-0.10;64.54;98409.32;2209099;81;21288;-78
2021/01/28 01:08:52;;;;;;;34.93;15.03;;;;;;;-0.14;64.84;98407.42;2209085;81;21249;-78
2021/01/28 01:11:53;;;;;;;26.97;12.97;;;;;;;-0.15;64.95;98410.39;2208842;81;21527;-78
2021/01/28 01:14:54;;;;;;;29.53;14.73;;;;;;;-0.15;65.13;98413.36;2209515;81;21106;-78
2021/01/28 01:17:55;;;;;;;36.97;16.50;;;;;;;-0.17;65.10;98404.71;2209147;81;21252;-80
2021/01/28 01:20:56;;;;;;;33.97;16.20;;;;;;;-0.19;64.65;98408.48;2209991;81;21269;-78
2021/01/28 01:23:57;;;;;;;33.40;16.57;;;;;;;-0.25;64.64;98400.91;2210030;81;21106;-78
2021/01/28 01:26:58;;;;;;;36.47;16.73;;;;;;;-0.33;64.37;98402.72;2210008;81;21802;-79
2021/01/28 01:30:00;;;;;;;31.10;15.77;;;;;;;-0.40;64.97;98399.39;2210101;81;21258;-77
2021/01/28 01:33:01;;;;;;;36.57;16.13;;;;;;;-0.42;65.11;98398.44;2210136;81;21134;-78
2021/01/28 01:36:02;;;;;;;41.87;18.17;;;;;;;-0.45;64.94;98389.72;2209226;81;21509;-78
2021/01/28 01:39:03;;;;;;;38.93;17.40;;;;;;;-0.48;65.15;98388.29;2209253;81;21252;-77
2021/01/28 01:42:04;;;;;;;40.57;17.17;;;;;;;-0.50;65.65;98384.77;2209315;81;21264;-77
2021/01/28 01:45:05;;;;;;;42.00;17.23;;;;;;;-0.45;65.62;98384.59;2209222;81;21288;-78
2021/01/28 01:48:06;;;;;;;36.57;16.97;;;;;;;-0.38;65.69;98377.66;2213930;80;21471;-78
2021/01/28 01:51:07;;;;;;;37.27;16.97;;;;;;;-0.30;65.91;98385.31;2216035;80;21280;-78
2021/01/28 01:54:08;;;;;;;35.30;17.47;;;;;;;-0.25;65.51;98379.98;2217327;80;21272;-77
2021/01/28 01:57:11;;;;;;;36.17;16.50;;;;;;;-0.25;65.57;98380.39;2217328;80;21130;-78
2021/01/28 02:00:13;;;;;;;41.90;17.90;;;;;;;-0.25;65.63;98376.14;2217381;80;21264;-78
2021/01/28 02:03:14;;;;;;;39.90;17.73;;;;;;;-0.24;65.78;98360.34;2217340;80;21272;-77
2021/01/28 02:06:15;;;;;;;41.03;17.73;;;;;;;-0.22;65.73;98354.48;2217061;80;21292;-78
2021/01/28 02:09:16;;;;;;;39.80;17.80;;;;;;;-0.27;65.85;98348.27;2217197;80;21530;-78
2021/01/28 02:12:17;;;;;;;37.43;17.60;;;;;;;-0.28;65.86;98348.19;2216744;80;21138;-77
2021/01/28 02:15:18;;;;;;;32.73;16.43;;;;;;;-0.32;66.00;98349.33;2217022;80;21261;-78
2021/01/28 02:18:19;;;;;;;48.43;20.23;;;;;;;-0.39;66.16;98350.27;2217039;80;21106;-77
2021/01/28 02:21:21;;;;;;;42.90;19.50;;;;;;;-0.47;66.07;98343.90;2216464;80;21249;-77
2021/01/28 02:24:22;;;;;;;41.87;19.07;;;;;;;-0.55;66.20;98339.70;2216758;80;21189;-78
2021/01/28 02:27:23;;;;;;;40.63;19.67;;;;;;;-0.65;66.44;98338.38;2216713;80;21284;-78
2021/01/28 02:30:24;;;;;;;37.60;17.63;;;;;;;-0.75;66.41;98337.88;2217187;80;21261;-77
2021/01/28 02:33:25;;;;;;;33.60;16.10;;;;;;;-0.89;66.52;98332.06;2216788;80;21609;-77
2021/01/28 02:36:27;;;;;;;37.47;16.20;;;;;;;-0.99;66.46;98334.98;2216803;80;21276;-78
2021/01/28 02:39:28;;;;;;;39.37;17.23;;;;;;;-1.14;66.59;98328.71;2216942;80;21538;-77
2021/01/28 02:42:29;;;;;;;37.57;16.60;;;;;;;-1.25;67.00;98336.27;2216953;80;21249;-77
2021/01/28 02:45:30;;;;;;;35.27;16.50;;;;;;;-1.36;67.21;98333.58;2216699;80;21276;-77
2021/01/28 02:48:31;;;;;;;35.37;16.40;;;;;;;-1.48;67.18;98327.84;2211603;80;21579;-77
2021/01/28 02:51:32;;;;;;;34.13;15.80;;;;;;;-1.60;66.93;98326.83;2208670;81;21233;-77
2021/01/28 02:54:33;;;;;;;33.57;16.13;;;;;;;-1.75;67.00;98330.73;2209492;81;21474;-78
2021/01/28 02:57:34;;;;;;;33.20;15.17;;;;;;;-1.85;67.35;98328.50;2209980;81;21416;-78
2021/01/28 03:00:35;;;;;;;35.07;16.13;;;;;;;-1.92;67.51;98323.46;2209712;81;21113;-78
2021/01/28 03:03:36;;;;;;;34.20;14.43;;;;;;;-1.99;67.68;98318.83;2210326;81;21444;-77
2021/01/28 03:06:37;;;;;;;38.17;17.30;;;;;;;-2.07;67.80;98316.27;2209833;81;21284;-77
2021/01/28 03:09:38;;;;;;;31.80;15.07;;;;;;;-2.14;68.10;98308.20;2210230;81;21133;-77
2021/01/28 03:12:39;;;;;;;30.93;14.23;;;;;;;-2.18;68.16;98308.84;2210362;81;21360;-76
2021/01/28 03:15:41;;;;;;;36.57;15.83;;;;;;;-2.26;68.18;98304.20;2209322;81;21261;-77
2021/01/28 03:18:42;;;;;;;33.77;17.00;;;;;;;-2.38;68.21;98302.27;2209527;81;21245;-77
2021/01/28 03:21:43;;;;;;;39.90;18.40;;;;;;;-2.46;68.54;98297.55;2209218;81;21248;-77
2021/01/28 03:24:44;;;;;;;41.63;17.37;;;;;;;-2.48;68.75;98292.76;2209034;81;21285;-76
2021/01/28 03:27:45;;;;;;;33.97;16.37;;;;;;;-2.50;68.79;98299.46;2209520;81;21237;-77
2021/01/28 03:30:46;;;;;;;35.33;17.07;;;;;;;-2.55;68.78;98300.89;2210195;81;21360;-76
2021/01/28 03:33:47;;;;;;;36.80;17.73;;;;;;;-2.62;68.75;98303.48;2209997;81;21259;-77
2021/01/28 03:36:48;;;;;;;43.70;18.20;;;;;;;-2.73;68.59;98300.34;2209478;81;21245;-77
2021/01/28 03:39:49;;;;;;;47.83;18.70;;;;;;;-2.82;68.65;98297.28;2209803;81;21154;-77
2021/01/28 03:42:51;;;;;;;42.90;18.77;;;;;;;-2.88;68.92;98291.84;2210140;81;21420;-77
2021/01/28 03:45:52;;;;;;;45.83;20.57;;;;;;;-2.93;69.17;98291.59;2209902;81;21170;-77
2021/01/28 03:48:53;;;;;;;52.00;19.50;;;;;;;-2.95;69.18;98286.80;2210039;81;21582;-76
2021/01/28 03:51:54;;;;;;;48.60;18.17;;;;;;;-3.02;69.19;98274.48;2209725;81;21277;-77
2021/01/28 03:54:55;;;;;;;50.73;20.23;;;;;;;-3.08;69.25;98269.44;2209497;81;21129;-76
2021/01/28 03:57:56;;;;;;;43.20;18.40;;;;;;;-3.17;69.18;98264.70;2209805;81;21111;-77
2021/01/28 04:00:57;;;;;;;47.43;18.60;;;;;;;-3.26;69.31;98267.62;2209569;81;21145;-76
2021/01/28 04:03:58;;;;;;;47.63;20.37;;;;;;;-3.32;69.61;98267.67;2209015;81;21264;-76
2021/01/28 04:06:59;;;;;;;53.87;21.10;;;;;;;-3.37;69.62;98262.31;2209495;81;21312;-77
2021/01/28 04:10:01;;;;;;;53.50;21.03;;;;;;;-3.48;69.66;98261.19;2210068;81;21570;-77
2021/01/28 04:13:04;;;;;;;57.70;21.33;;;;;;;-3.52;69.77;98263.56;2210500;81;21094;-77
2021/01/28 04:16:05;;;;;;;54.53;20.90;;;;;;;-3.56;69.62;98253.98;2209525;81;21535;-77
2021/01/28 04:19:07;;;;;;;55.60;22.20;;;;;;;-3.61;69.75;98248.13;2209523;81;21260;-77
2021/01/28 04:22:08;;;;;;;58.27;22.83;;;;;;;-3.62;69.77;98251.47;2209353;81;21265;-78
2021/01/28 04:25:09;;;;;;;63.23;25.30;;;;;;;-3.68;69.49;98243.47;2209979;81;21843;-77
2021/01/28 04:28:10;;;;;;;60.97;23.50;;;;;;;-1.37;79.38;98237.09;2208812;81;21353;-77
2021/01/28 04:31:11;;;;;;;54.93;23.00;;;;;;;-1.59;68.99;98226.21;2208498;81;21257;-77
2021/01/28 04:34:12;;;;;;;56.80;21.83;;;;;;;-2.17;67.94;98227.09;2208366;81;21138;-77
2021/01/28 04:37:13;;;;;;;51.47;21.97;;;;;;;-2.54;67.96;98234.94;2207962;81;21263;-76
2021/01/28 04:40:15;;;;;;;46.40;20.57;;;;;;;-2.89;67.87;98228.39;2207640;81;21122;-77
2021/01/28 04:43:16;;;;;;;54.40;22.87;;;;;;;-3.18;67.96;98231.03;2207238;81;21256;-76
2021/01/28 04:46:18;;;;;;;52.63;21.93;;;;;;;-3.41;68.31;98227.20;2207488;81;21154;-77
2021/01/28 04:52:36;;;;;;;57.83;20.77;;;;;;;-3.64;68.88;98230.10;2207967;79;22916;-77
2021/01/28 04:55:37;;;;;;;53.60;20.10;;;;;;;-3.74;69.40;98222.72;2175676;81;21267;-78
2021/01/28 04:58:38;;;;;;;47.33;17.53;;;;;;;-3.78;69.88;98224.22;2175372;82;21229;-79
2021/01/28 05:01:39;;;;;;;70.93;23.03;;;;;;;1.38;78.26;98206.27;2175016;82;21118;-78
2021/01/28 05:04:40;;;;;;;73.03;23.17;;;;;;;2.29;65.12;98205.70;2175077;82;21563;-77
2021/01/28 05:07:41;;;;;;;70.87;24.17;;;;;;;0.89;62.37;98206.55;2175766;82;21241;-78
2021/01/28 05:10:44;;;;;;;68.73;23.27;;;;;;;2.11;64.49;98198.64;2175631;82;21272;-78
2021/01/28 05:13:45;;;;;;;71.87;26.53;;;;;;;1.07;60.67;98199.96;2175943;82;21129;-79
2021/01/28 05:16:46;;;;;;;70.23;26.00;;;;;;;-0.05;60.78;98194.48;2175702;82;21229;-78
2021/01/28 05:19:47;;;;;;;100.40;46.97;;;;;;;-0.90;61.44;98191.95;2175819;82;21280;-79
2021/01/28 05:22:48;;;;;;;112.33;52.67;;;;;;;-1.48;62.64;98193.45;2176574;82;21261;-79
2021/01/28 05:25:49;;;;;;;110.60;48.33;;;;;;;-1.90;63.63;98191.80;2175139;82;21292;-77
2021/01/28 05:28:50;;;;;;;96.07;42.50;;;;;;;-2.20;64.39;98189.87;2174830;82;21264;-78
2021/01/28 05:31:51;;;;;;;100.87;38.83;;;;;;;-2.40;64.84;98181.58;2176021;82;21288;-78
2021/01/28 05:34:53;;;;;;;97.70;37.67;;;;;;;-2.59;65.10;98188.30;2175469;82;21280;-77
2021/01/28 05:37:54;;;;;;;87.37;34.23;;;;;;;-2.75;65.57;98180.99;2176057;82;21249;-77
2021/01/28 05:40:55;;;;;;;77.03;26.50;;;;;;;-2.88;65.93;98180.75;2176120;82;21598;-77
2021/01/28 05:43:56;;;;;;;57.67;26.43;;;;;;;-2.99;66.45;98184.41;2176050;82;21126;-78
2021/01/28 05:46:57;;;;;;;68.70;28.73;;;;;;;-3.13;66.74;98177.28;2176141;82;21426;-78
2021/01/28 05:49:58;;;;;;;81.13;35.50;;;;;;;-3.21;67.01;98175.98;2176597;81;21316;-80
2021/01/28 05:52:59;;;;;;;99.30;42.73;;;;;;;-3.29;67.29;98171.73;2177343;81;21106;-79
2021/01/28 05:56:00;;;;;;;72.40;32.20;;;;;;;-3.33;67.46;98166.38;2177419;81;21122;-80
2021/01/28 05:59:01;;;;;;;65.13;29.00;;;;;;;-3.43;67.23;98160.30;2176672;81;21388;-80
2021/01/28 06:02:02;;;;;;;68.80;29.30;;;;;;;-3.52;67.48;98165.34;2176425;81;21253;-79
2021/01/28 06:05:03;;;;;;;64.73;27.27;;;;;;;-3.59;67.51;98163.64;2176174;81;21275;-79
2021/01/28 06:08:05;;;;;;;81.43;31.10;;;;;;;-3.66;67.96;98156.44;2175550;81;21221;-78
2021/01/28 06:11:07;;;;;;;101.23;39.20;;;;;;;-3.73;68.14;98150.52;2176156;81;21296;-80
2021/01/28 06:14:08;;;;;;;101.27;41.27;;;;;;;-3.75;68.48;98148.28;2176090;81;21256;-79
2021/01/28 06:17:09;;;;;;;100.43;40.20;;;;;;;-3.77;68.68;98147.31;2175930;81;21706;-79
2021/01/28 06:20:10;;;;;;;95.20;41.33;;;;;;;-3.74;68.93;98148.36;2176203;82;21281;-79
2021/01/28 06:23:11;;;;;;;93.67;39.50;;;;;;;-3.73;68.86;98146.69;2175490;81;21672;-79
2021/01/28 06:26:12;;;;;;;97.67;41.07;;;;;;;-3.77;68.82;98139.66;2176001;81;21249;-79
2021/01/28 06:29:13;;;;;;;112.70;44.53;;;;;;;-3.76;69.08;98133.37;2176154;81;21280;-80
2021/01/28 06:32:14;;;;;;;106.53;47.43;;;;;;;-3.70;69.22;98138.81;2176464;81;21228;-79
2021/01/28 06:35:15;;;;;;;100.90;45.40;;;;;;;-3.67;69.25;98136.44;2176203;81;21407;-78
2021/01/28 06:38:16;;;;;;;94.23;44.07;;;;;;;-3.64;69.28;98134.05;2176230;81;21565;-78
2021/01/28 06:41:17;;;;;;;89.90;40.07;;;;;;;-3.63;69.21;98128.16;2176398;81;21256;-79
2021/01/28 06:44:18;;;;;;;88.53;41.23;;;;;;;-3.61;69.28;98129.12;2177056;82;21292;-78
2021/01/28 06:47:20;;;;;;;91.00;42.07;;;;;;;-3.58;69.40;98119.48;2176478;81;21228;-78
2021/01/28 06:50:21;;;;;;;93.37;38.33;;;;;;;-3.57;69.32;98118.29;2176446;81;21284;-79
2021/01/28 06:53:22;;;;;;;83.33;38.23;;;;;;;-3.54;69.24;98119.73;2175642;82;21618;-79
2021/01/28 06:56:23;;;;;;;108.60;45.80;;;;;;;-3.53;69.31;98113.84;2175282;81;21296;-79
2021/01/28 06:59:24;;;;;;;91.97;42.50;;;;;;;-3.46;69.45;98108.70;2174911;81;21439;-79
2021/01/28 07:02:25;;;;;;;107.40;45.13;;;;;;;-3.35;69.51;98102.50;2175527;82;21137;-79
2021/01/28 07:05:26;;;;;;;107.17;46.47;;;;;;;-3.28;69.50;98095.66;2175536;81;21458;-79
2021/01/28 07:08:27;;;;;;;102.83;44.97;;;;;;;-3.18;69.43;98093.19;2175390;81;21137;-78
2021/01/28 07:11:28;;;;;;;128.17;47.20;;;;;;;-3.08;69.47;98094.55;2174308;81;21744;-78
2021/01/28 07:14:30;;;;;;;100.40;42.60;;;;;;;-2.95;69.39;98096.95;2175035;81;21256;-79
2021/01/28 07:17:31;;;;;;;101.83;43.90;;;;;;;-2.84;69.20;98096.23;2175023;82;21245;-79
2021/01/28 07:20:32;;;;;;;95.17;42.60;;;;;;;-2.75;69.16;98084.80;2174989;81;21975;-79
2021/01/28 07:23:33;;;;;;;95.43;44.83;;;;;;;-2.66;68.86;98077.61;2175093;81;21253;-80
2021/01/28 07:26:34;;;;;;;94.23;37.53;;;;;;;-2.59;68.87;98069.89;2175525;82;21665;-78
2021/01/28 07:29:35;;;;;;;89.87;39.90;;;;;;;-2.49;68.68;98064.44;2174886;82;21249;-79
2021/01/28 07:32:37;;;;;;;90.83;42.13;;;;;;;-2.40;68.57;98052.52;2175656;81;21640;-80
2021/01/28 07:35:39;;;;;;;88.33;40.53;;;;;;;-2.30;68.48;98037.70;2176147;81;21240;-79
2021/01/28 07:38:40;;;;;;;100.73;42.57;;;;;;;-2.20;68.16;98032.63;2175584;81;21248;-79
2021/01/28 07:41:41;;;;;;;100.80;42.03;;;;;;;-2.10;68.15;98029.72;2175307;81;21260;-78
2021/01/28 07:44:42;;;;;;;96.37;41.40;;;;;;;-1.92;67.92;98022.91;2176544;81;21557;-78
2021/01/28 07:47:43;;;;;;;83.93;39.07;;;;;;;-1.68;67.94;98018.49;2175902;81;21264;-79
2021/01/28 07:50:44;;;;;;;86.67;39.23;;;;;;;-1.52;67.35;98023.51;2175288;81;21288;-79
2021/01/28 07:53:45;;;;;;;96.10;40.23;;;;;;;-1.47;66.89;98013.48;2176525;81;21522;-80
2021/01/28 07:56:46;;;;;;;84.37;39.67;;;;;;;-1.39;66.85;98005.33;2175236;81;21248;-78
2021/01/28 07:59:48;;;;;;;86.30;39.80;;;;;;;-1.32;66.38;98004.80;2174616;81;21244;-80
2021/01/28 08:02:49;;;;;;;90.13;42.73;;;;;;;-1.26;66.27;97997.80;2174528;81;21252;-77
2021/01/28 08:05:50;;;;;;;104.37;47.73;;;;;;;-1.20;66.39;97995.91;2175438;81;21271;-79
2021/01/28 08:08:51;;;;;;;99.10;46.20;;;;;;;-1.11;66.24;97982.22;2147197;82;21125;-78
2021/01/28 08:11:52;;;;;;;91.17;43.10;;;;;;;-1.06;66.06;97986.73;2175369;81;21299;-79
2021/01/28 08:14:53;;;;;;;80.73;39.07;;;;;;;-0.99;65.80;97977.62;2175199;81;21256;-78
2021/01/28 08:17:55;;;;;;;79.80;37.57;;;;;;;-0.92;65.61;97978.36;2174761;81;21221;-78
2021/01/28 08:20:56;;;;;;;67.33;35.53;;;;;;;-0.85;65.67;97971.43;2174756;81;21616;-76
2021/01/28 08:23:57;;;;;;;72.60;35.07;;;;;;;-0.75;65.73;97976.53;2176019;81;21260;-78
2021/01/28 08:26:58;;;;;;;62.20;29.20;;;;;;;-0.62;65.66;97971.11;2176064;81;21257;-77
2021/01/28 08:29:59;;;;;;;59.50;29.47;;;;;;;-0.52;65.25;97971.08;2175888;82;21269;-78
2021/01/28 08:33:00;;;;;;;57.03;27.73;;;;;;;-0.40;65.07;97972.86;2175529;81;21277;-77
2021/01/28 08:36:04;;;;;;;43.80;20.37;;;;;;;-0.25;64.86;97981.17;2175487;81;21094;-79
2021/01/28 08:39:05;;;;;;;49.67;24.40;;;;;;;-0.08;63.66;97975.42;2175661;81;21260;-78
2021/01/28 08:42:06;;;;;;;50.03;25.43;;;;;;;-0.01;64.09;97965.86;2176045;81;21534;-79
2021/01/28 08:45:07;;;;;;;56.40;26.23;;;;;;;0.12;63.83;97960.42;2175674;81;21264;-78
2021/01/28 08:48:10;;;;;;;41.87;21.30;;;;;;;0.26;63.48;97955.81;2175368;82;21257;-78
2021/01/28 08:51:13;;;;;;;54.87;26.37;;;;;;;0.29;62.60;97949.52;2176014;81;21327;-78
2021/01/28 08:54:14;;;;;;;45.30;23.93;;;;;;;0.36;63.26;97948.92;2176423;81;21273;-79
2021/01/28 08:57:15;;;;;;;50.03;25.47;;;;;;;0.44;62.56;97939.80;2175438;81;21495;-77
2021/01/28 09:00:16;;;;;;;47.63;22.40;;;;;;;0.48;62.84;97942.95;2174444;81;21098;-77
2021/01/28 09:03:17;;;;;;;59.20;27.80;;;;;;;0.63;62.27;97939.66;2173555;81;21554;-78
2021/01/28 09:06:18;;;;;;;52.53;26.90;;;;;;;0.77;62.76;97938.86;2173301;81;21253;-77
2021/01/28 09:09:19;;;;;;;51.03;26.33;;;;;;;0.89;62.47;97940.61;2174410;81;21275;-77
2021/01/28 09:12:21;;;;;;;45.93;25.07;;;;;;;1.03;62.19;97937.23;2174798;81;21284;-78
2021/01/28 09:15:22;;;;;;;49.63;24.10;;;;;;;1.12;62.10;97931.12;2175356;82;21125;-79
2021/01/28 09:18:26;;;;;;;52.47;26.37;;;;;;;1.22;61.80;97923.31;2175812;82;21395;-77
2021/01/28 09:21:26;;;;;;;44.67;25.10;;;;;;;1.36;61.67;97919.50;2175453;81;21617;-79
2021/01/28 09:24:27;;;;;;;64.70;32.07;;;;;;;1.45;61.28;97913.78;2176095;81;21260;-78
2021/01/28 09:27:28;;;;;;;56.93;26.67;;;;;;;1.52;61.44;97907.59;2175808;81;21118;-78
2021/01/28 09:30:31;;;;;;;38.53;21.30;;;;;;;1.66;61.39;97909.33;2175594;82;21300;-78
2021/01/28 09:33:34;;;;;;;44.45;23.87;;;;;;;1.74;60.87;97891.17;2175606;81;21265;-78
2021/01/28 09:36:35;;;;;;;44.07;21.63;;;;;;;1.88;60.99;97893.76;2174841;81;21256;-80
2021/01/28 09:39:36;;;;;;;27.43;16.20;;;;;;;2.04;60.71;97891.23;2175233;81;21253;-78
2021/01/28 09:42:37;;;;;;;41.43;21.87;;;;;;;2.23;58.59;97875.91;2175931;81;21257;-79
2021/01/28 09:45:38;;;;;;;32.70;18.80;;;;;;;2.45;59.87;97867.09;2176815;81;21257;-80
2021/01/28 09:48:39;;;;;;;30.83;17.53;;;;;;;2.71;59.42;97870.41;2175398;81;21233;-78
2021/01/28 09:51:41;;;;;;;22.67;13.47;;;;;;;2.96;59.66;97861.62;2170641;81;21304;-79
2021/01/28 09:54:42;;;;;;;22.20;14.17;;;;;;;3.17;56.42;97855.71;2159052;82;21277;-81
2021/01/28 09:57:43;;;;;;;27.43;16.07;;;;;;;3.19;56.41;97847.18;2159024;82;21590;-80
2021/01/28 10:00:44;;;;;;;23.60;14.87;;;;;;;3.18;57.34;97841.98;2158554;82;21107;-80
2021/01/28 10:03:46;;;;;;;24.80;16.07;;;;;;;3.23;57.50;97837.81;2158471;82;21581;-78
2021/01/28 10:06:47;;;;;;;27.60;15.77;;;;;;;3.30;57.58;97832.38;2158218;82;21297;-79
2021/01/28 10:09:48;;;;;;;28.10;16.37;;;;;;;3.55;58.21;97820.55;2158807;82;21257;-80
2021/01/28 10:12:49;;;;;;;30.70;15.33;;;;;;;3.66;57.20;97820.79;2159035;82;21865;-78
2021/01/28 10:15:50;;;;;;;26.70;16.57;;;;;;;3.60;55.32;97804.75;2158614;82;21253;-78
2021/01/28 10:18:51;;;;;;;28.57;16.53;;;;;;;3.58;56.61;97802.97;2158746;82;21242;-78
2021/01/28 10:21:53;;;;;;;28.73;17.30;;;;;;;3.62;57.28;97804.36;2158241;82;21292;-80
2021/01/28 10:24:54;;;;;;;25.57;15.57;;;;;;;3.61;56.93;97803.04;2159257;82;21244;-80
2021/01/28 10:27:55;;;;;;;30.90;16.60;;;;;;;3.56;56.34;97799.06;2159148;82;21237;-79
2021/01/28 10:30:56;;;;;;;24.90;15.53;;;;;;;3.55;56.38;97792.16;2159049;82;21285;-78
2021/01/28 10:33:57;;;;;;;30.53;16.53;;;;;;;3.62;57.28;97782.43;2158875;82;21305;-77
2021/01/28 10:36:58;;;;;;;29.27;16.80;;;;;;;3.64;57.50;97776.88;2158898;82;21269;-79
2021/01/28 10:39:59;;;;;;;31.60;16.50;;;;;;;3.70;57.04;97777.02;2159400;82;21138;-81
2021/01/28 10:43:00;;;;;;;28.00;15.47;;;;;;;3.67;55.80;97773.08;2159343;82;21806;-81
2021/01/28 10:46:01;;;;;;;31.83;17.77;;;;;;;3.68;56.15;97760.63;2159053;82;21350;-80
2021/01/28 10:49:02;;;;;;;28.67;18.07;;;;;;;3.77;56.21;97758.23;2159095;82;21296;-81
2021/01/28 10:52:03;;;;;;;34.20;19.83;;;;;;;3.90;56.71;97755.91;2158479;81;21288;-78
2021/01/28 10:55:05;;;;;;;31.73;17.97;;;;;;;4.07;56.98;97753.25;2158880;82;21249;-79
2021/01/28 10:58:08;;;;;;;37.40;17.37;;;;;;;4.20;56.01;97747.91;2158548;82;21281;-79
2021/01/28 11:01:09;;;;;;;30.03;17.97;;;;;;;4.26;56.00;97752.77;2158377;82;21277;-80
2021/01/28 11:04:12;;;;;;;29.23;17.53;;;;;;;4.26;55.64;97742.43;2157824;82;21456;-80
2021/01/28 11:07:13;;;;;;;32.77;17.97;;;;;;;4.22;54.98;97738.47;2157466;82;21595;-79
2021/01/28 11:10:15;;;;;;;34.23;19.43;;;;;;;4.16;55.78;97732.77;2158371;82;21340;-80
2021/01/28 11:13:16;;;;;;;34.97;18.93;;;;;;;4.22;55.72;97720.39;2159559;82;21103;-80
2021/01/28 11:16:23;;;;;;;32.03;18.53;;;;;;;4.32;56.03;97715.84;2159292;82;21579;-78
2021/01/28 11:19:20;;;;;;;34.47;19.47;;;;;;;4.27;55.62;97709.30;2157843;82;21651;-78
2021/01/28 11:22:22;;;;;;;33.60;19.70;;;;;;;4.18;56.36;97705.25;2158319;82;21253;-77
2021/01/28 11:25:23;;;;;;;37.40;19.60;;;;;;;4.05;56.29;97702.86;2158480;82;21241;-79
2021/01/28 11:28:24;;;;;;;30.83;18.07;;;;;;;3.99;56.25;97695.42;2137031;82;21539;-77
2021/01/28 11:31:25;;;;;;;33.23;18.33;;;;;;;4.00;56.27;97691.58;2158058;82;21281;-79
2021/01/28 11:34:27;;;;;;;33.43;19.87;;;;;;;3.97;56.01;97688.06;2158222;82;21302;-81
2021/01/28 11:37:29;;;;;;;41.20;21.17;;;;;;;3.81;56.29;97683.90;2157995;82;21250;-78
2021/01/28 11:40:30;;;;;;;34.20;19.73;;;;;;;3.69;56.71;97677.20;2158043;82;21273;-79
2021/01/28 11:43:31;;;;;;;39.80;22.23;;;;;;;3.65;56.76;97669.37;2158572;82;21241;-79
2021/01/28 11:46:32;;;;;;;41.63;22.63;;;;;;;3.64;57.44;97668.50;2158581;82;21273;-78
2021/01/28 11:49:33;;;;;;;36.27;20.60;;;;;;;3.65;57.07;97668.08;2158567;82;21889;-80
2021/01/28 11:52:36;;;;;;;37.73;21.40;;;;;;;3.65;57.18;97666.37;2163292;82;21276;-80
2021/01/28 11:55:39;;;;;;;40.03;21.87;;;;;;;3.59;57.21;97652.05;2176111;81;21145;-79
2021/01/28 11:58:41;;;;;;;41.77;23.80;;;;;;;3.66;57.13;97650.47;2175984;81;21256;-79
2021/01/28 12:01:44;;;;;;;37.65;21.85;;;;;;;3.67;57.08;97640.17;2176193;81;21146;-80
2021/01/28 12:04:45;;;;;;;45.97;23.30;;;;;;;3.62;57.36;97633.18;2175608;81;21545;-78
2021/01/28 12:07:46;;;;;;;41.83;24.07;;;;;;;3.51;57.41;97626.52;2174813;81;21280;-78
2021/01/28 12:10:47;;;;;;;45.80;23.27;;;;;;;3.50;57.96;97627.36;2175544;81;21295;-77
2021/01/28 12:13:49;;;;;;;43.60;22.83;;;;;;;3.60;58.09;97625.41;2176060;81;21509;-79
2021/01/28 12:16:50;;;;;;;38.83;22.40;;;;;;;3.73;57.64;97618.35;2175174;81;21874;-77
2021/01/28 12:19:51;;;;;;;39.53;20.70;;;;;;;3.86;57.03;97606.97;2148111;82;21260;-78
2021/01/28 12:22:52;;;;;;;40.10;21.93;;;;;;;3.98;56.32;97602.02;2176171;82;21277;-78
2021/01/28 12:25:53;;;;;;;41.87;22.80;;;;;;;3.99;62.74;97603.34;2175798;81;21245;-77
2021/01/28 12:28:54;;;;;;;41.63;22.43;;;;;;;4.50;56.29;97596.05;2175356;81;21594;-78
2021/01/28 12:31:55;;;;;;;44.37;24.23;;;;;;;4.26;55.94;97593.91;2175633;82;21304;-77
2021/01/28 12:34:56;;;;;;;50.57;26.00;;;;;;;4.00;56.01;97603.78;2175914;81;21162;-78
2021/01/28 12:37:57;;;;;;;47.13;26.57;;;;;;;3.78;56.84;97605.11;2174147;81;21878;-78
2021/01/28 12:40:59;;;;;;;50.80;27.13;;;;;;;3.60;57.52;97606.05;2174608;81;21272;-78
2021/01/28 12:44:00;;;;;;;53.80;26.83;;;;;;;3.41;58.27;97602.63;2174850;82;21248;-77
2021/01/28 12:47:01;;;;;;;51.27;27.33;;;;;;;3.22;58.45;97600.52;2175205;81;21954;-76
2021/01/28 12:50:02;;;;;;;48.00;25.90;;;;;;;3.01;58.99;97594.08;2174169;81;21245;-78
2021/01/28 12:53:03;;;;;;;58.17;29.53;;;;;;;2.87;59.87;97586.05;2174092;81;21264;-78
2021/01/28 12:56:04;;;;;;;51.83;28.27;;;;;;;2.70;60.38;97579.66;2173956;82;21268;-77
2021/01/28 12:59:06;;;;;;;57.90;31.03;;;;;;;2.62;60.92;97583.77;2174925;82;21253;-79
2021/01/28 13:02:07;;;;;;;48.63;25.30;;;;;;;2.56;61.64;97570.30;2174235;81;21573;-77
2021/01/28 13:05:08;;;;;;;52.63;30.07;;;;;;;2.55;62.30;97563.41;2173537;81;21962;-77
2021/01/28 13:08:09;;;;;;;51.73;29.27;;;;;;;2.53;62.63;97562.50;2173127;82;21264;-77
2021/01/28 13:11:10;;;;;;;58.33;29.87;;;;;;;2.53;62.75;97565.08;2173671;81;21622;-77
2021/01/28 13:14:11;;;;;;;54.73;29.57;;;;;;;2.49;62.90;97572.28;2174585;81;21245;-78
2021/01/28 13:17:12;;;;;;;52.90;29.87;;;;;;;2.42;63.18;97570.81;2175712;81;21248;-79
2021/01/28 13:20:14;;;;;;;57.10;30.60;;;;;;;2.32;63.49;97564.58;2175482;82;21581;-77
2021/01/28 13:23:15;;;;;;;52.60;29.23;;;;;;;2.31;63.91;97560.68;2175668;81;21247;-78
2021/01/28 13:26:18;;;;;;;58.60;32.47;;;;;;;2.33;64.02;97557.73;2176353;81;21256;-78
2021/01/28 13:29:19;;;;;;;60.80;32.50;;;;;;;2.29;64.08;97551.63;2176153;81;21539;-78
2021/01/28 13:32:20;;;;;;;59.67;32.00;;;;;;;2.31;64.41;97543.94;2174685;81;21291;-77
2021/01/28 13:35:21;;;;;;;56.03;31.77;;;;;;;2.34;64.85;97541.02;2175912;81;21419;-78
2021/01/28 13:38:22;;;;;;;56.00;31.10;;;;;;;2.30;64.91;97548.22;2175965;81;21253;-77
2021/01/28 13:41:23;;;;;;;61.90;31.60;;;;;;;2.21;65.20;97545.02;2176290;81;21341;-78
2021/01/28 13:44:24;;;;;;;64.27;33.80;;;;;;;2.14;65.66;97538.40;2176549;81;21149;-78
2021/01/28 13:47:25;;;;;;;52.70;30.47;;;;;;;2.07;65.87;97534.81;2176445;81;21122;-77
2021/01/28 13:50:26;;;;;;;58.50;31.20;;;;;;;2.06;66.10;97536.06;2175973;81;21661;-78
2021/01/28 13:53:27;;;;;;;64.87;32.80;;;;;;;2.04;66.29;97530.00;2176365;81;21323;-78
2021/01/28 13:56:28;;;;;;;61.83;34.57;;;;;;;2.04;66.74;97520.58;2176192;82;21288;-77
2021/01/28 13:59:30;;;;;;;71.37;37.33;;;;;;;2.06;66.79;97520.20;2176290;81;21240;-78